createdAt,value
2019-06-08T00:00:16.800Z,18.20
2019-06-08T00:01:22.842Z,18.21
2019-06-08T00:02:27.650Z,18.22
2019-06-08T00:03:32.474Z,18.22
2019-06-08T00:04:37.103Z,18.20
2019-06-08T00:05:42.191Z,18.17
2019-06-08T00:06:47.235Z,18.17
2019-06-08T00:07:52.358Z,18.15
2019-06-08T00:08:57.260Z,18.16
2019-06-08T00:10:02.105Z,18.11
2019-06-08T00:11:06.767Z,18.13
2019-06-08T00:12:12.892Z,18.17
2019-06-08T00:13:19.729Z,18.19
2019-06-08T00:14:25.570Z,18.18
2019-06-08T00:15:30.507Z,18.14
2019-06-08T00:16:35.527Z,18.09
2019-06-08T00:17:40.134Z,18.08
2019-06-08T00:18:45.404Z,18.05
2019-06-08T00:19:50.815Z,18.08
2019-06-08T00:20:56.057Z,18.06
2019-06-08T00:22:00.743Z,18.04
2019-06-08T00:23:05.698Z,18.05
2019-06-08T00:24:10.395Z,18.08
2019-06-08T00:25:15.880Z,18.08
2019-06-08T00:26:22.154Z,18.09
2019-06-08T00:27:27.217Z,18.11
2019-06-08T00:28:32.027Z,18.13
2019-06-08T00:29:37.201Z,18.08
2019-06-08T00:30:41.813Z,18.06
2019-06-08T00:31:46.799Z,18.06
2019-06-08T00:32:51.518Z,18.05
2019-06-08T00:33:56.317Z,18.04
2019-06-08T00:35:01.115Z,18.01
2019-06-08T00:36:05.946Z,17.98
2019-06-08T00:37:10.557Z,18.00
2019-06-08T00:38:16.821Z,17.94
2019-06-08T00:39:22.918Z,17.92
2019-06-08T00:40:27.865Z,17.88
2019-06-08T00:41:33.029Z,17.94
2019-06-08T00:42:38.115Z,17.99
2019-06-08T00:43:42.717Z,17.97
2019-06-08T00:44:48.017Z,17.98
2019-06-08T00:45:52.614Z,17.99
2019-06-08T00:46:57.444Z,17.98
2019-06-08T00:48:03.215Z,17.93
2019-06-08T00:49:08.105Z,17.88
2019-06-08T00:50:13.142Z,17.91
2019-06-08T00:51:18.993Z,17.93
2019-06-08T00:52:23.630Z,17.96
2019-06-08T00:53:29.629Z,17.95
2019-06-08T00:54:34.743Z,17.94
2019-06-08T00:55:39.773Z,17.93
2019-06-08T00:56:44.513Z,17.93
2019-06-08T00:57:49.609Z,17.95
2019-06-08T00:58:54.283Z,17.94
2019-06-08T00:59:59.319Z,17.96
2019-06-08T01:01:05.150Z,18.00
2019-06-08T01:02:10.341Z,17.97
2019-06-08T01:03:15.325Z,18.03
2019-06-08T01:04:20.652Z,18.02
2019-06-08T01:05:26.101Z,18.01
2019-06-08T01:06:31.475Z,18.04
2019-06-08T01:07:36.906Z,18.09
2019-06-08T01:08:42.335Z,18.10
2019-06-08T01:09:47.030Z,18.12
2019-06-08T01:10:53.107Z,18.13
2019-06-08T01:11:57.986Z,18.18
2019-06-08T01:13:02.993Z,18.24
2019-06-08T01:14:08.054Z,18.26
2019-06-08T01:15:14.946Z,18.26
2019-06-08T01:16:20.889Z,18.30
2019-06-08T01:17:27.455Z,18.33
2019-06-08T01:18:33.367Z,18.37
2019-06-08T01:19:38.270Z,18.41
2019-06-08T01:20:42.900Z,18.45
2019-06-08T01:21:48.055Z,18.50
2019-06-08T01:22:54.106Z,18.49
2019-06-08T01:23:58.931Z,18.52
2019-06-08T01:25:03.958Z,18.52
2019-06-08T01:26:08.937Z,18.56
2019-06-08T01:27:13.951Z,18.64
2019-06-08T01:28:19.949Z,18.65
2019-06-08T01:29:24.655Z,18.68
2019-06-08T01:30:30.450Z,18.67
2019-06-08T01:31:35.293Z,18.69
2019-06-08T01:32:40.554Z,18.68
2019-06-08T01:33:45.166Z,18.67
2019-06-08T01:34:50.617Z,18.65
2019-06-08T01:35:55.418Z,18.68
2019-06-08T01:37:00.257Z,18.69
2019-06-08T01:38:05.579Z,18.71
2019-06-08T01:39:10.404Z,18.70
2019-06-08T01:40:15.917Z,18.72
2019-06-08T01:41:21.315Z,18.73
2019-06-08T01:42:25.996Z,18.70
2019-06-08T01:43:31.790Z,18.71
2019-06-08T01:44:36.719Z,18.69
2019-06-08T01:45:41.755Z,18.68
2019-06-08T01:46:46.358Z,18.71
2019-06-08T01:47:51.186Z,18.73
2019-06-08T01:48:55.800Z,18.72
2019-06-08T01:50:00.895Z,18.73
2019-06-08T01:51:05.659Z,18.73
2019-06-08T01:52:10.549Z,18.70
2019-06-08T01:53:15.170Z,18.73
2019-06-08T01:54:19.989Z,18.75
2019-06-08T01:55:25.134Z,18.80
2019-06-08T01:56:31.231Z,18.81
2019-06-08T01:57:36.220Z,18.84
2019-06-08T01:58:41.044Z,18.86
2019-06-08T01:59:45.656Z,18.84
2019-06-08T02:00:50.502Z,18.85
2019-06-08T02:01:55.110Z,18.86
2019-06-08T02:03:00.010Z,18.86
2019-06-08T02:04:05.346Z,18.89
2019-06-08T02:05:10.513Z,18.89
2019-06-08T02:06:15.141Z,18.91
2019-06-08T02:07:20.416Z,18.89
2019-06-08T02:08:26.542Z,18.89
2019-06-08T02:09:32.710Z,18.91
2019-06-08T02:10:37.586Z,18.90
2019-06-08T02:11:42.749Z,18.85
2019-06-08T02:12:47.497Z,18.89
2019-06-08T02:13:52.327Z,18.88
2019-06-08T02:14:56.939Z,18.96
2019-06-08T02:16:01.866Z,18.99
2019-06-08T02:17:06.618Z,19.04
2019-06-08T02:18:11.515Z,19.03
2019-06-08T02:19:16.126Z,19.06
2019-06-08T02:20:22.561Z,19.07
2019-06-08T02:21:27.194Z,19.09
2019-06-08T02:22:33.056Z,19.08
2019-06-08T02:23:37.711Z,19.15
2019-06-08T02:24:42.538Z,19.20
2019-06-08T02:25:47.474Z,19.22
2019-06-08T02:26:52.304Z,19.26
2019-06-08T02:27:57.554Z,19.28
2019-06-08T02:29:02.480Z,19.26
2019-06-08T02:30:15.951Z,19.17
2019-06-08T02:31:20.794Z,19.11
2019-06-08T02:32:25.398Z,19.01
2019-06-08T02:33:30.398Z,18.81
2019-06-08T02:34:37.900Z,18.58
2019-06-08T02:35:42.202Z,18.57
2019-06-08T02:36:46.821Z,18.46
2019-06-08T02:37:51.633Z,18.38
2019-06-08T02:38:56.240Z,18.26
2019-06-08T02:40:01.394Z,18.14
2019-06-08T02:41:06.754Z,18.11
2019-06-08T02:42:11.642Z,18.06
2019-06-08T02:43:16.306Z,18.00
2019-06-08T02:44:21.117Z,17.93
2019-06-08T02:45:25.789Z,17.93
2019-06-08T02:46:31.011Z,17.99
2019-06-08T02:47:36.697Z,17.96
2019-06-08T02:49:02.240Z,17.95
2019-06-08T02:49:48.155Z,17.96
2019-06-08T02:50:55.547Z,17.99
2019-06-08T02:52:01.343Z,18.01
2019-06-08T02:53:06.479Z,17.99
2019-06-08T02:54:12.499Z,17.99
2019-06-08T02:55:17.724Z,17.95
2019-06-08T02:56:23.717Z,17.91
2019-06-08T02:57:31.007Z,17.93
2019-06-08T02:58:39.057Z,17.90
2019-06-08T02:59:44.100Z,17.91
2019-06-08T03:00:49.730Z,17.91
2019-06-08T03:01:58.478Z,17.91
2019-06-08T03:03:06.687Z,17.86
2019-06-08T03:04:13.030Z,17.87
2019-06-08T03:05:18.040Z,17.83
2019-06-08T03:06:23.342Z,17.88
2019-06-08T03:07:32.278Z,17.85
2019-06-08T03:08:40.954Z,17.80
2019-06-08T03:09:47.504Z,17.76
2019-06-08T03:10:54.286Z,17.78
2019-06-08T03:12:02.424Z,17.80
2019-06-08T03:13:07.344Z,17.79
2019-06-08T03:14:12.748Z,17.81
2019-06-08T03:15:20.989Z,17.76
2019-06-08T03:16:25.863Z,17.73
2019-06-08T03:17:31.108Z,17.69
2019-06-08T03:18:37.810Z,17.69
2019-06-08T03:19:43.998Z,17.69
2019-06-08T03:20:48.632Z,17.71
2019-06-08T03:21:53.463Z,17.71
2019-06-08T03:22:58.532Z,17.62
2019-06-08T03:24:03.360Z,17.63
2019-06-08T03:25:08.085Z,17.64
2019-06-08T03:26:13.090Z,17.64
2019-06-08T03:27:18.023Z,17.61
2019-06-08T03:28:23.001Z,17.64
2019-06-08T03:29:27.945Z,17.66
2019-06-08T03:30:35.311Z,17.62
2019-06-08T03:31:49.735Z,17.63
2019-06-08T03:32:55.041Z,17.68
2019-06-08T03:33:56.161Z,17.73
2019-06-08T03:34:59.799Z,17.70
2019-06-08T03:36:04.532Z,17.71
2019-06-08T03:37:09.825Z,17.70
2019-06-08T03:38:14.952Z,17.69
2019-06-08T03:39:20.129Z,17.75
2019-06-08T03:40:24.978Z,17.73
2019-06-08T03:41:29.787Z,17.73
2019-06-08T03:42:34.520Z,17.75
2019-06-08T03:43:40.697Z,17.60
2019-06-08T03:44:46.262Z,17.61
2019-06-08T03:45:51.486Z,17.61
2019-06-08T03:46:56.108Z,17.61
2019-06-08T03:48:01.060Z,17.54
2019-06-08T03:49:06.023Z,17.56
2019-06-08T03:50:12.483Z,17.62
2019-06-08T03:51:17.155Z,17.62
2019-06-08T03:52:22.163Z,17.62
2019-06-08T03:53:27.135Z,17.58
2019-06-08T03:54:32.235Z,17.53
2019-06-08T03:55:38.017Z,17.52
2019-06-08T03:56:44.177Z,17.51
2019-06-08T03:57:49.023Z,17.42
2019-06-08T03:58:53.844Z,17.45
2019-06-08T03:59:58.636Z,17.43
2019-06-08T04:01:03.947Z,17.40
2019-06-08T04:02:08.630Z,17.40
2019-06-08T04:03:13.613Z,17.38
2019-06-08T04:04:18.416Z,17.38
2019-06-08T04:05:23.296Z,17.40
2019-06-08T04:06:28.206Z,17.43
2019-06-08T04:07:33.260Z,17.40
2019-06-08T04:08:40.196Z,17.41
2019-06-08T04:09:45.911Z,17.39
2019-06-08T04:10:51.851Z,17.38
2019-06-08T04:11:56.772Z,17.42
2019-06-08T04:13:01.581Z,17.42
2019-06-08T04:14:06.843Z,17.37
2019-06-08T04:15:12.167Z,17.37
2019-06-08T04:16:19.640Z,17.35
2019-06-08T04:17:27.162Z,17.32
2019-06-08T04:18:31.960Z,17.34
2019-06-08T04:19:38.105Z,17.29
2019-06-08T04:20:45.804Z,17.23
2019-06-08T04:21:50.599Z,17.27
2019-06-08T04:22:56.705Z,17.32
2019-06-08T04:24:01.312Z,17.39
2019-06-08T04:25:09.309Z,17.31
2019-06-08T04:26:13.979Z,17.34
2019-06-08T04:27:18.818Z,17.33
2019-06-08T04:28:23.666Z,17.30
2019-06-08T04:29:28.613Z,17.27
2019-06-08T04:30:36.035Z,17.34
2019-06-08T04:31:41.883Z,17.38
2019-06-08T04:32:47.606Z,17.32
2019-06-08T04:33:53.364Z,17.29
2019-06-08T04:34:58.852Z,17.33
2019-06-08T04:36:04.049Z,17.32
2019-06-08T04:37:09.048Z,17.34
2019-06-08T04:38:14.522Z,17.37
2019-06-08T04:39:19.663Z,17.40
2019-06-08T04:40:24.549Z,17.29
2019-06-08T04:41:29.504Z,17.29
2019-06-08T04:42:34.955Z,17.30
2019-06-08T04:43:42.633Z,17.35
2019-06-08T04:44:49.330Z,17.29
2019-06-08T04:45:54.427Z,17.13
2019-06-08T04:46:59.685Z,17.21
2019-06-08T04:48:04.379Z,17.24
2019-06-08T04:49:09.503Z,17.11
2019-06-08T04:50:22.586Z,17.25
2019-06-08T04:51:20.853Z,17.32
2019-06-08T04:52:26.077Z,17.27
2019-06-08T04:53:31.002Z,17.24
2019-06-08T04:54:35.891Z,17.20
2019-06-08T04:55:43.170Z,17.21
2019-06-08T04:56:49.115Z,17.16
2019-06-08T04:57:54.288Z,17.24
2019-06-08T04:58:59.344Z,17.21
2019-06-08T05:00:11.954Z,17.24
2019-06-08T05:01:12.054Z,17.24
2019-06-08T05:02:16.866Z,17.32
2019-06-08T05:03:23.480Z,17.24
2019-06-08T05:04:28.299Z,17.30
2019-06-08T05:05:32.905Z,17.27
2019-06-08T05:06:39.049Z,17.29
2019-06-08T05:07:46.026Z,17.19
2019-06-08T05:08:51.442Z,17.13
2019-06-08T05:09:56.042Z,17.17
2019-06-08T05:11:00.862Z,17.18
2019-06-08T05:12:05.537Z,17.05
2019-06-08T05:13:10.363Z,17.15
2019-06-08T05:14:14.978Z,17.22
2019-06-08T05:15:20.019Z,17.31
2019-06-08T05:16:24.749Z,17.33
2019-06-08T05:17:29.567Z,17.31
2019-06-08T05:18:34.359Z,17.27
2019-06-08T05:19:41.083Z,17.27
2019-06-08T05:20:47.946Z,17.22
2019-06-08T05:21:52.780Z,17.21
2019-06-08T05:22:58.374Z,17.11
2019-06-08T05:24:03.226Z,17.20
2019-06-08T05:25:07.889Z,17.24
2019-06-08T05:26:13.670Z,17.36
2019-06-08T05:27:18.854Z,17.42
2019-06-08T05:28:23.765Z,17.50
2019-06-08T05:29:28.641Z,17.38
2019-06-08T05:30:33.576Z,17.51
2019-06-08T05:31:39.367Z,17.51
2019-06-08T05:32:45.533Z,17.51
2019-06-08T05:33:50.257Z,17.55
2019-06-08T05:34:55.136Z,17.50
2019-06-08T05:35:59.735Z,17.45
2019-06-08T05:37:05.073Z,17.45
2019-06-08T05:38:09.693Z,17.46
2019-06-08T05:39:14.546Z,17.44
2019-06-08T05:40:19.379Z,17.37
2019-06-08T05:41:24.472Z,17.41
2019-06-08T05:42:29.258Z,17.43
2019-06-08T05:43:34.098Z,17.47
2019-06-08T05:44:39.591Z,17.60
2019-06-08T05:45:45.701Z,17.63
2019-06-08T05:46:50.710Z,17.72
2019-06-08T05:47:55.526Z,17.58
2019-06-08T05:49:00.150Z,17.59
2019-06-08T05:50:09.652Z,17.76
2019-06-08T05:51:14.483Z,17.81
2019-06-08T05:52:19.338Z,17.77
2019-06-08T05:53:23.942Z,17.71
2019-06-08T05:54:28.757Z,17.77
2019-06-08T05:55:33.802Z,17.86
2019-06-08T05:56:39.793Z,18.04
2019-06-08T05:57:44.464Z,18.03
2019-06-08T05:58:50.376Z,18.21
2019-06-08T05:59:55.067Z,18.40
2019-06-08T06:00:59.885Z,18.47
2019-06-08T06:02:04.561Z,18.48
2019-06-08T06:03:09.440Z,18.50
2019-06-08T06:04:14.058Z,18.33
2019-06-08T06:05:19.444Z,18.39
2019-06-08T06:06:24.831Z,18.57
2019-06-08T06:07:29.632Z,18.42
2019-06-08T06:08:34.527Z,18.27
2019-06-08T06:09:40.988Z,18.36
2019-06-08T06:10:46.917Z,18.39
2019-06-08T06:11:53.031Z,18.40
2019-06-08T06:12:57.749Z,18.42
2019-06-08T06:14:02.852Z,18.41
2019-06-08T06:15:08.078Z,18.54
2019-06-08T06:16:13.258Z,18.39
2019-06-08T06:17:18.071Z,18.69
2019-06-08T06:18:23.020Z,18.61
2019-06-08T06:19:27.715Z,18.71
2019-06-08T06:20:32.924Z,18.77
2019-06-08T06:21:37.644Z,18.65
2019-06-08T06:22:43.974Z,18.69
2019-06-08T06:23:49.327Z,18.80
2019-06-08T06:24:54.209Z,19.00
2019-06-08T06:25:58.848Z,18.87
2019-06-08T06:27:03.845Z,18.99
2019-06-08T06:28:08.444Z,19.12
2019-06-08T06:29:13.720Z,19.07
2019-06-08T06:30:18.590Z,19.19
2019-06-08T06:31:23.391Z,19.29
2019-06-08T06:32:28.273Z,19.34
2019-06-08T06:33:33.203Z,19.43
2019-06-08T06:34:38.033Z,19.41
2019-06-08T06:35:43.791Z,19.34
2019-06-08T06:36:48.483Z,19.46
2019-06-08T06:37:53.571Z,19.37
2019-06-08T06:38:58.327Z,19.51
2019-06-08T06:40:03.594Z,19.61
2019-06-08T06:41:08.324Z,19.54
2019-06-08T06:42:13.145Z,19.50
2019-06-08T06:43:17.741Z,19.48
2019-06-08T06:44:22.643Z,19.32
2019-06-08T06:45:28.451Z,19.57
2019-06-08T06:46:33.454Z,19.47
2019-06-08T06:47:38.330Z,19.49
2019-06-08T06:48:44.027Z,19.52
2019-06-08T06:49:48.634Z,19.48
2019-06-08T06:50:53.535Z,19.29
2019-06-08T06:51:58.137Z,19.43
2019-06-08T06:53:02.946Z,19.32
2019-06-08T06:54:07.719Z,19.38
2019-06-08T06:55:12.827Z,19.47
2019-06-08T06:56:17.421Z,19.43
2019-06-08T06:57:22.238Z,19.45
2019-06-08T06:58:26.860Z,19.40
2019-06-08T06:59:31.778Z,19.27
2019-06-08T07:00:36.522Z,19.36
2019-06-08T07:01:41.456Z,19.33
2019-06-08T07:02:47.644Z,19.23
2019-06-08T07:03:54.241Z,19.13
2019-06-08T07:04:59.257Z,19.27
2019-06-08T07:06:04.768Z,19.29
2019-06-08T07:07:09.369Z,19.40
2019-06-08T07:08:14.508Z,19.47
2019-06-08T07:09:19.430Z,19.62
2019-06-08T07:10:24.265Z,19.68
2019-06-08T07:11:28.865Z,19.72
2019-06-08T07:12:33.711Z,19.58
2019-06-08T07:13:38.348Z,19.64
2019-06-08T07:14:43.261Z,19.39
2019-06-08T07:15:51.432Z,19.38
2019-06-08T07:16:54.564Z,19.49
2019-06-08T07:17:59.739Z,19.56
2019-06-08T07:19:04.979Z,19.56
2019-06-08T07:20:09.841Z,19.67
2019-06-08T07:21:15.008Z,19.83
2019-06-08T07:22:19.678Z,20.00
2019-06-08T07:23:25.291Z,20.08
2019-06-08T07:24:29.894Z,19.95
2019-06-08T07:25:34.737Z,19.90
2019-06-08T07:26:39.336Z,19.96
2019-06-08T07:27:44.440Z,19.99
2019-06-08T07:28:49.425Z,20.07
2019-06-08T07:29:56.026Z,20.00
2019-06-08T07:31:00.623Z,20.06
2019-06-08T07:32:05.448Z,20.22
2019-06-08T07:33:10.044Z,20.10
2019-06-08T07:34:14.863Z,20.05
2019-06-08T07:35:19.540Z,20.20
2019-06-08T07:36:24.487Z,20.29
2019-06-08T07:37:29.238Z,20.40
2019-06-08T07:38:34.157Z,20.52
2019-06-08T07:39:38.758Z,20.70
2019-06-08T07:40:43.603Z,20.50
2019-06-08T07:41:49.072Z,20.64
2019-06-08T07:42:56.560Z,20.88
2019-06-08T07:44:01.377Z,20.98
2019-06-08T07:45:07.687Z,20.94
2019-06-08T07:46:12.722Z,20.69
2019-06-08T07:47:17.563Z,20.52
2019-06-08T07:48:22.159Z,20.51
2019-06-08T07:49:27.036Z,20.40
2019-06-08T07:50:31.604Z,20.41
2019-06-08T07:51:36.559Z,20.57
2019-06-08T07:52:41.160Z,20.45
2019-06-08T07:53:47.062Z,20.40
2019-06-08T07:54:52.824Z,20.57
2019-06-08T07:55:58.251Z,20.77
2019-06-08T07:57:02.857Z,20.72
2019-06-08T07:58:07.718Z,20.80
2019-06-08T07:59:12.385Z,20.42
2019-06-08T08:00:17.844Z,20.53
2019-06-08T08:01:35.328Z,20.39
2019-06-08T08:02:30.715Z,20.27
2019-06-08T08:03:37.020Z,20.25
2019-06-08T08:04:41.844Z,20.30
2019-06-08T08:05:48.088Z,20.33
2019-06-08T08:06:54.433Z,20.05
2019-06-08T08:07:59.131Z,19.91
2019-06-08T08:09:07.047Z,19.76
2019-06-08T08:10:12.179Z,19.82
2019-06-08T08:11:17.136Z,19.75
2019-06-08T08:12:21.813Z,19.66
2019-06-08T08:13:26.637Z,19.51
2019-06-08T08:14:31.583Z,19.40
2019-06-08T08:15:36.440Z,19.45
2019-06-08T08:16:41.040Z,19.37
2019-06-08T08:17:45.935Z,19.43
2019-06-08T08:18:51.503Z,19.47
2019-06-08T08:19:57.299Z,19.47
2019-06-08T08:21:09.169Z,19.37
2019-06-08T08:22:22.137Z,19.44
2019-06-08T08:23:17.384Z,19.38
2019-06-08T08:24:22.226Z,19.55
2019-06-08T08:25:28.169Z,19.67
2019-06-08T08:26:34.562Z,19.48
2019-06-08T08:27:39.361Z,19.45
2019-06-08T08:28:44.246Z,19.55
2019-06-08T08:29:49.944Z,19.48
2019-06-08T08:30:56.164Z,19.55
2019-06-08T08:32:02.134Z,19.55
2019-06-08T08:33:07.850Z,19.66
2019-06-08T08:34:18.297Z,19.75
2019-06-08T08:36:18.026Z,20.11
2019-06-08T08:37:22.468Z,20.26
2019-06-08T08:38:27.269Z,20.38
2019-06-08T08:39:32.639Z,20.61
2019-06-08T08:40:38.789Z,20.60
2019-06-08T08:41:44.412Z,20.73
2019-06-08T08:42:50.538Z,20.57
2019-06-08T08:43:58.418Z,20.51
2019-06-08T08:45:05.141Z,20.35
2019-06-08T08:46:08.525Z,20.31
2019-06-08T08:47:12.948Z,19.95
2019-06-08T08:48:25.254Z,20.06
2019-06-08T08:49:24.062Z,20.03
2019-06-08T08:50:29.112Z,19.98
2019-06-08T08:51:33.620Z,19.78
2019-06-08T08:52:40.955Z,19.67
2019-06-08T08:53:44.945Z,19.70
2019-06-08T08:54:51.327Z,19.79
2019-06-08T08:55:59.679Z,19.55
2019-06-08T08:57:05.112Z,19.64
2019-06-08T08:58:08.948Z,19.78
2019-06-08T08:59:14.250Z,19.58
2019-06-08T09:00:19.503Z,19.51
2019-06-08T09:02:11.374Z,19.66
2019-06-08T09:03:27.827Z,19.54
2019-06-08T09:04:21.078Z,19.76
2019-06-08T09:05:28.123Z,19.67
2019-06-08T09:06:32.646Z,19.82
2019-06-08T09:07:38.536Z,20.00
2019-06-08T09:08:43.157Z,20.01
2019-06-08T09:09:48.390Z,20.11
2019-06-08T09:10:53.422Z,20.16
2019-06-08T09:12:02.221Z,19.97
2019-06-08T09:13:04.850Z,19.98
2019-06-08T09:14:14.120Z,19.98
2019-06-08T09:15:16.053Z,19.93
2019-06-08T09:16:21.439Z,19.73
2019-06-08T09:17:27.881Z,19.70
2019-06-08T09:18:32.581Z,19.66
2019-06-08T09:19:38.217Z,19.54
2019-06-08T09:20:43.814Z,19.77
2019-06-08T09:21:48.374Z,19.75
2019-06-08T09:23:01.706Z,19.73
2019-06-08T09:24:02.595Z,19.89
2019-06-08T09:25:08.753Z,19.95
2019-06-08T09:26:14.349Z,20.00
2019-06-08T09:27:19.638Z,20.15
2019-06-08T09:28:24.499Z,20.31
2019-06-08T09:29:29.500Z,20.51
2019-06-08T09:30:34.187Z,20.24
2019-06-08T09:31:39.440Z,20.40
2019-06-08T09:32:43.867Z,20.52
2019-06-08T09:34:06.736Z,20.46
2019-06-08T09:34:57.170Z,20.41
2019-06-08T09:36:04.524Z,20.15
2019-06-08T09:37:08.631Z,20.04
2019-06-08T09:38:13.714Z,20.23
2019-06-08T09:39:18.763Z,20.04
2019-06-08T09:40:25.916Z,20.10
2019-06-08T09:41:31.282Z,20.18
2019-06-08T09:42:36.659Z,20.13
2019-06-08T09:43:41.148Z,20.15
2019-06-08T09:44:48.289Z,19.92
2019-06-08T09:45:53.816Z,19.88
2019-06-08T09:47:05.662Z,19.97
2019-06-08T09:48:09.231Z,19.87
2019-06-08T09:49:13.428Z,19.79
2019-06-08T09:50:18.698Z,19.96
2019-06-08T09:51:23.835Z,19.99
2019-06-08T09:52:28.380Z,20.06
2019-06-08T09:53:37.589Z,19.87
2019-06-08T09:54:39.593Z,19.70
2019-06-08T09:55:44.977Z,19.84
2019-06-08T09:56:49.705Z,19.88
2019-06-08T09:57:58.964Z,19.89
2019-06-08T09:59:03.836Z,20.15
2019-06-08T10:00:18.029Z,20.38
2019-06-08T10:01:18.432Z,20.27
2019-06-08T10:02:23.400Z,20.72
2019-06-08T10:03:30.753Z,20.75
2019-06-08T10:04:34.654Z,20.83
2019-06-08T10:05:39.079Z,20.45
2019-06-08T10:06:44.506Z,20.63
2019-06-08T10:07:49.095Z,20.56
2019-06-08T10:08:54.354Z,20.32
2019-06-08T10:10:02.246Z,20.10
2019-06-08T10:11:07.322Z,19.97
2019-06-08T10:12:11.949Z,19.90
2019-06-08T10:13:22.853Z,19.94
2019-06-08T10:14:28.200Z,19.76
2019-06-08T10:15:33.823Z,19.98
2019-06-08T10:16:38.553Z,19.88
2019-06-08T10:17:44.648Z,19.77
2019-06-08T10:18:51.498Z,19.66
2019-06-08T10:20:00.243Z,19.66
2019-06-08T10:21:03.455Z,19.46
2019-06-08T10:22:08.758Z,19.37
2019-06-08T10:23:29.911Z,19.40
2019-06-08T10:24:20.281Z,19.48
2019-06-08T10:25:24.701Z,19.44
2019-06-08T10:26:29.693Z,19.54
2019-06-08T10:27:34.453Z,19.39
2019-06-08T10:28:39.738Z,19.28
2019-06-08T10:29:44.143Z,19.37
2019-06-08T10:30:49.224Z,19.41
2019-06-08T10:31:53.707Z,19.47
2019-06-08T10:33:01.815Z,19.62
2019-06-08T10:34:08.491Z,19.82
2019-06-08T10:35:12.351Z,19.71
2019-06-08T10:36:18.324Z,19.82
2019-06-08T10:37:23.348Z,20.01
2019-06-08T10:38:28.946Z,20.11
2019-06-08T10:39:34.059Z,20.29
2019-06-08T10:40:40.257Z,20.47
2019-06-08T10:41:45.309Z,20.60
2019-06-08T10:42:49.799Z,20.79
2019-06-08T10:43:54.897Z,20.64
2019-06-08T10:45:04.098Z,20.89
2019-06-08T10:46:14.032Z,21.16
2019-06-08T10:47:12.482Z,21.10
2019-06-08T10:48:17.998Z,20.69
2019-06-08T10:49:22.818Z,20.49
2019-06-08T10:50:28.993Z,20.56
2019-06-08T10:51:33.443Z,20.63
2019-06-08T10:52:39.112Z,20.64
2019-06-08T10:53:49.101Z,20.65
2019-06-08T10:54:50.767Z,20.41
2019-06-08T10:55:57.846Z,20.31
2019-06-08T10:57:05.067Z,20.54
2019-06-08T10:58:10.915Z,20.41
2019-06-08T10:59:16.271Z,20.47
2019-06-08T11:00:24.148Z,20.54
2019-06-08T11:01:29.534Z,20.44
2019-06-08T11:02:33.998Z,20.47
2019-06-08T11:03:39.139Z,20.78
2019-06-08T11:04:43.725Z,20.89
2019-06-08T11:05:51.298Z,20.91
2019-06-08T11:06:58.304Z,20.88
2019-06-08T11:08:02.965Z,20.88
2019-06-08T11:09:13.336Z,20.91
2019-06-08T11:10:15.917Z,20.88
2019-06-08T11:11:20.681Z,20.84
2019-06-08T11:12:28.140Z,20.64
2019-06-08T11:13:31.918Z,20.72
2019-06-08T11:14:38.243Z,21.03
2019-06-08T11:15:43.088Z,21.64
2019-06-08T11:16:48.098Z,21.96
2019-06-08T11:17:52.568Z,22.30
2019-06-08T11:18:59.071Z,22.09
2019-06-08T11:20:07.369Z,21.98
2019-06-08T11:21:12.901Z,21.91
2019-06-08T11:22:18.035Z,22.37
2019-06-08T11:23:23.252Z,22.79
2019-06-08T11:24:28.943Z,22.85
2019-06-08T11:25:34.212Z,22.54
2019-06-08T11:26:40.377Z,22.57
2019-06-08T11:27:47.522Z,23.13
2019-06-08T11:28:51.754Z,23.19
2019-06-08T11:29:57.545Z,23.18
2019-06-08T11:31:02.091Z,23.19
2019-06-08T11:32:10.921Z,23.10
2019-06-08T11:33:13.410Z,22.84
2019-06-08T11:34:21.573Z,22.84
2019-06-08T11:35:24.601Z,23.29
2019-06-08T11:36:29.712Z,23.50
2019-06-08T11:37:34.169Z,22.97
2019-06-08T11:38:39.373Z,22.64
2019-06-08T11:39:44.793Z,22.38
2019-06-08T11:40:49.835Z,22.17
2019-06-08T11:41:54.496Z,22.28
2019-06-08T11:43:00.412Z,22.10
2019-06-08T11:44:07.133Z,21.91
2019-06-08T11:45:13.279Z,21.92
2019-06-08T11:46:21.350Z,21.39
2019-06-08T11:47:24.740Z,21.52
2019-06-08T11:48:29.166Z,21.68
2019-06-08T11:49:34.185Z,21.92
2019-06-08T11:50:42.065Z,21.95
2019-06-08T11:51:47.853Z,22.05
2019-06-08T11:52:52.599Z,22.20
2019-06-08T11:53:59.379Z,22.17
2019-06-08T11:55:05.415Z,22.29
2019-06-08T11:56:13.313Z,22.62
2019-06-08T11:57:17.767Z,22.74
2019-06-08T11:58:24.801Z,22.61
2019-06-08T11:59:30.348Z,22.90
2019-06-08T12:01:04.625Z,23.31
2019-06-08T12:02:10.505Z,23.45
2019-06-08T12:03:14.742Z,23.87
2019-06-08T12:04:20.142Z,24.43
2019-06-08T12:05:27.758Z,24.33
2019-06-08T12:06:31.547Z,24.41
2019-06-08T12:07:38.205Z,23.96
2019-06-08T12:08:42.657Z,23.87
2019-06-08T12:09:50.143Z,23.60
2019-06-08T12:10:54.224Z,23.71
2019-06-08T12:11:59.224Z,23.40
2019-06-08T12:13:04.708Z,23.11
2019-06-08T12:14:11.435Z,23.23
2019-06-08T12:15:18.149Z,23.44
2019-06-08T12:16:22.652Z,23.18
2019-06-08T12:17:27.625Z,22.89
2019-06-08T12:18:32.646Z,22.85
2019-06-08T12:19:37.854Z,22.61
2019-06-08T12:20:42.940Z,22.20
2019-06-08T12:21:49.598Z,22.12
2019-06-08T12:22:54.125Z,22.23
2019-06-08T12:23:58.537Z,22.29
2019-06-08T12:25:03.873Z,22.14
2019-06-08T12:26:10.212Z,22.11
2019-06-08T12:27:26.898Z,22.02
2019-06-08T12:28:21.320Z,21.91
2019-06-08T12:29:28.409Z,22.00
2019-06-08T12:30:32.545Z,22.09
2019-06-08T12:31:37.871Z,22.22
2019-06-08T12:32:43.482Z,22.28
2019-06-08T12:33:48.884Z,22.30
2019-06-08T12:34:53.678Z,22.54
2019-06-08T12:35:59.062Z,22.22
2019-06-08T12:37:03.474Z,22.26
2019-06-08T12:38:09.991Z,22.50
2019-06-08T12:39:14.742Z,22.13
2019-06-08T12:40:20.919Z,22.27
2019-06-08T12:41:28.881Z,22.34
2019-06-08T12:42:37.996Z,22.44
2019-06-08T12:43:43.052Z,22.56
2019-06-08T12:44:49.502Z,22.29
2019-06-08T12:45:55.347Z,22.48
2019-06-08T12:47:00.971Z,22.84
2019-06-08T12:48:09.840Z,22.70
2019-06-08T12:49:15.760Z,23.08
2019-06-08T12:50:21.443Z,23.33
2019-06-08T12:51:28.201Z,23.59
2019-06-08T12:52:33.633Z,23.49
2019-06-08T12:53:40.183Z,23.29
2019-06-08T12:54:59.211Z,23.32
2019-06-08T12:55:53.130Z,23.67
2019-06-08T12:57:00.843Z,24.32
2019-06-08T12:58:09.371Z,24.51
2019-06-08T12:59:16.531Z,24.62
2019-06-08T13:00:24.872Z,24.93
2019-06-08T13:01:30.239Z,24.57
2019-06-08T13:02:38.260Z,24.65
2019-06-08T13:03:43.312Z,24.71
2019-06-08T13:04:48.851Z,24.25
2019-06-08T13:05:53.287Z,24.55
2019-06-08T13:06:58.477Z,24.62
2019-06-08T13:08:02.892Z,24.99
2019-06-08T13:09:10.060Z,25.18
2019-06-08T13:10:15.297Z,24.80
2019-06-08T13:11:21.241Z,24.97
2019-06-08T13:12:25.825Z,25.07
2019-06-08T13:13:30.838Z,24.73
2019-06-08T13:14:35.440Z,24.80
2019-06-08T13:15:40.727Z,24.38
2019-06-08T13:16:48.525Z,23.90
2019-06-08T13:17:52.881Z,24.14
2019-06-08T13:18:58.701Z,24.11
2019-06-08T13:20:04.504Z,24.02
2019-06-08T13:21:21.859Z,23.64
2019-06-08T13:22:16.916Z,23.52
2019-06-08T13:23:22.122Z,23.63
2019-06-08T13:24:28.546Z,23.43
2019-06-08T13:25:40.351Z,24.06
2019-06-08T13:26:40.167Z,24.39
2019-06-08T13:27:44.731Z,24.89
2019-06-08T13:28:49.773Z,25.14
2019-06-08T13:29:57.793Z,25.18
2019-06-08T13:31:02.945Z,25.33
2019-06-08T13:32:07.943Z,25.37
2019-06-08T13:33:14.051Z,25.67
2019-06-08T13:34:22.129Z,25.86
2019-06-08T13:35:27.401Z,26.10
2019-06-08T13:36:31.491Z,25.70
2019-06-08T13:37:38.888Z,25.21
2019-06-08T13:38:42.676Z,25.18
2019-06-08T13:39:47.735Z,24.60
2019-06-08T13:40:52.369Z,24.59
2019-06-08T13:41:57.403Z,24.71
2019-06-08T13:43:01.890Z,24.80
2019-06-08T13:44:08.271Z,25.00
2019-06-08T13:45:16.251Z,24.77
2019-06-08T13:46:23.534Z,24.13
2019-06-08T13:47:28.375Z,23.85
2019-06-08T13:48:33.412Z,24.04
2019-06-08T13:49:37.910Z,24.44
2019-06-08T13:50:43.219Z,24.66
2019-06-08T13:51:47.935Z,24.78
2019-06-08T13:52:55.476Z,24.89
2019-06-08T13:54:00.198Z,25.00
2019-06-08T13:55:07.607Z,25.14
2019-06-08T13:56:12.799Z,24.98
2019-06-08T13:57:20.623Z,24.56
2019-06-08T13:58:32.675Z,24.63
2019-06-08T13:59:32.287Z,24.80
2019-06-08T14:00:38.453Z,24.80
2019-06-08T14:01:43.881Z,24.84
2019-06-08T14:02:51.231Z,24.78
2019-06-08T14:03:58.170Z,25.08
2019-06-08T14:05:02.839Z,25.36